TimeEDT,TemperatureF,Dew PointF,Humidity,Sea Level PressureIn,VisibilityMPH,Wind Direction,Wind SpeedMPH,Gust SpeedMPH,PrecipitationIn,Events,Conditions,WindDirDegrees,DateUTC
12:52 AM,37.0,35.1,93,29.68,10.0,Calm,Calm,-,N/A,,Overcast,0,2013-10-24 04:52:00
1:52 AM,37.0,35.1,93,29.69,10.0,NE,3.5,-,N/A,,Partly Cloudy,40,2013-10-24 05:52:00
2:52 AM,41.0,33.1,73,29.70,10.0,West,6.9,-,N/A,,Partly Cloudy,280,2013-10-24 06:52:00
3:52 AM,34.0,30.9,89,29.71,10.0,WSW,3.5,-,N/A,,Clear,250,2013-10-24 07:52:00
4:52 AM,37.9,30.9,76,29.74,10.0,West,3.5,-,N/A,,Clear,270,2013-10-24 08:52:00
5:52 AM,30.9,28.9,92,29.76,10.0,SSW,5.8,-,N/A,,Clear,210,2013-10-24 09:52:00
6:52 AM,28.9,27.0,92,29.78,10.0,Calm,Calm,-,N/A,,Clear,0,2013-10-24 10:52:00
7:52 AM,28.9,28.0,96,29.81,10.0,South,3.5,-,N/A,,Clear,190,2013-10-24 11:52:00
8:52 AM,37.9,30.9,76,29.82,10.0,South,5.8,-,N/A,,Clear,190,2013-10-24 12:52:00
9:52 AM,43.0,30.0,60,29.82,10.0,WSW,9.2,-,N/A,,Partly Cloudy,250,2013-10-24 13:52:00
10:52 AM,46.0,26.1,46,29.82,10.0,West,17.3,24.2,N/A,,Partly Cloudy,260,2013-10-24 14:52:00
11:52 AM,46.0,26.1,46,29.82,10.0,West,11.5,19.6,N/A,,Overcast,280,2013-10-24 15:52:00
12:52 PM,46.9,24.1,41,29.79,10.0,West,16.1,23.0,N/A,,Clear,280,2013-10-24 16:52:00
1:52 PM,48.9,24.1,38,29.78,10.0,WNW,11.5,24.2,N/A,,Partly Cloudy,290,2013-10-24 17:52:00
2:52 PM,48.0,21.9,36,29.78,10.0,West,11.5,19.6,N/A,,Clear,260,2013-10-24 18:52:00
3:52 PM,50.0,21.0,32,29.79,10.0,West,17.3,24.2,N/A,,Mostly Cloudy,260,2013-10-24 19:52:00
4:52 PM,48.9,21.0,33,29.80,10.0,West,10.4,-,N/A,,Partly Cloudy,260,2013-10-24 20:52:00
5:52 PM,46.9,21.9,37,29.83,10.0,West,9.2,-,N/A,,Mostly Cloudy,260,2013-10-24 21:52:00
6:52 PM,46.0,23.0,40,29.85,10.0,SW,6.9,-,N/A,,Overcast,230,2013-10-24 22:52:00
7:52 PM,45.0,25.0,46,29.86,10.0,SSW,6.9,-,N/A,,Mostly Cloudy,200,2013-10-24 23:52:00
8:52 PM,46.0,25.0,44,29.87,10.0,West,5.8,-,N/A,,Overcast,260,2013-10-25 00:52:00
9:52 PM,45.0,27.0,49,29.89,10.0,NW,5.8,-,N/A,,Overcast,320,2013-10-25 01:52:00
10:52 PM,43.0,30.0,60,29.90,10.0,WNW,8.1,-,N/A,,Overcast,290,2013-10-25 02:52:00
11:52 PM,43.0,32.0,65,29.91,10.0,WNW,9.2,-,N/A,,Overcast,290,2013-10-25 03:52:00